createdAt,value
2023-01-31T00:03:01.111Z,31.55
2023-01-31T00:06:26.047Z,28.50
2023-01-31T00:09:28.145Z,31.13
2023-01-31T00:12:30.317Z,30.75
2023-01-31T00:15:32.838Z,31.50
2023-01-31T00:18:36.056Z,31.40
2023-01-31T00:21:38.661Z,31.60
2023-01-31T00:24:40.883Z,31.25
2023-01-31T00:27:43.090Z,30.88
2023-01-31T00:30:46.872Z,31.48
2023-01-31T00:33:50.237Z,30.58
2023-01-31T00:36:52.522Z,28.63
2023-01-31T00:39:54.648Z,30.13
2023-01-31T00:42:56.778Z,29.83
2023-01-31T00:45:59.154Z,32.05
2023-01-31T00:49:02.178Z,28.75
2023-01-31T00:52:04.454Z,27.67
2023-01-31T00:55:07.124Z,30.58
2023-01-31T00:58:09.580Z,31.98
2023-01-31T01:01:14.117Z,33.58
2023-01-31T01:04:16.405Z,30.70
2023-01-31T01:07:18.627Z,31.70
2023-01-31T01:10:20.906Z,31.08
2023-01-31T01:13:23.284Z,31.65
2023-01-31T01:16:32.025Z,30.10
2023-01-31T01:19:34.323Z,28.05
2023-01-31T01:22:36.848Z,29.75
2023-01-31T01:25:45.354Z,30.27
2023-01-31T01:28:49.033Z,32.58
2023-01-31T01:31:51.313Z,31.25
2023-01-31T01:34:53.531Z,33.38
2023-01-31T01:37:56.428Z,32.63
2023-01-31T01:40:58.596Z,31.77
2023-01-31T01:44:02.434Z,31.17
2023-01-31T01:47:04.757Z,31.63
2023-01-31T01:50:15.856Z,31.30
2023-01-31T01:53:23.171Z,31.75
2023-01-31T01:56:32.602Z,32.28
2023-01-31T02:00:04.765Z,31.03
2023-01-31T02:03:17.556Z,30.52
2023-01-31T02:06:20.830Z,31.23
2023-01-31T02:09:33.126Z,30.27
2023-01-31T02:12:36.508Z,30.55
2023-01-31T02:15:38.822Z,31.77
2023-01-31T02:18:41.328Z,29.98
2023-01-31T02:21:58.593Z,30.70
2023-01-31T02:25:28.150Z,29.17
2023-01-31T02:29:03.319Z,30.40
2023-01-31T02:32:21.444Z,29.92
2023-01-31T02:35:47.997Z,31.33
2023-01-31T02:39:02.585Z,28.27
2023-01-31T02:42:27.991Z,28.25
2023-01-31T02:45:30.232Z,26.65
2023-01-31T02:48:53.068Z,27.98
2023-01-31T02:56:08.930Z,27.45
2023-01-31T02:59:22.260Z,27.20
2023-01-31T03:02:26.543Z,29.83
2023-01-31T03:05:28.786Z,28.50
2023-01-31T03:08:31.532Z,28.05
2023-01-31T03:12:03.738Z,28.58
2023-01-31T03:15:13.639Z,29.42
2023-01-31T03:18:24.971Z,26.35
2023-01-31T03:21:34.807Z,29.35
2023-01-31T03:24:38.519Z,28.70
2023-01-31T03:27:45.733Z,28.92
2023-01-31T03:31:16.504Z,28.13
2023-01-31T03:34:19.322Z,28.95
2023-01-31T03:38:14.030Z,30.02
2023-01-31T03:41:31.148Z,26.00
2023-01-31T03:44:56.604Z,29.08
2023-01-31T03:48:03.619Z,27.92
2023-01-31T03:54:20.243Z,25.48
2023-01-31T03:57:28.555Z,29.13
2023-01-31T04:00:34.691Z,26.33
2023-01-31T04:03:51.697Z,26.15
2023-01-31T04:06:55.399Z,26.73
2023-01-31T04:09:58.010Z,28.20
2023-01-31T04:13:01.627Z,28.27
2023-01-31T04:16:04.309Z,27.75
2023-01-31T04:19:06.583Z,26.98
2023-01-31T04:22:08.791Z,27.23
2023-01-31T04:25:11.480Z,27.35
2023-01-31T04:28:14.481Z,26.25
2023-01-31T04:31:16.877Z,24.48
2023-01-31T04:34:19.311Z,27.73
2023-01-31T04:37:21.477Z,28.60
2023-01-31T04:40:23.695Z,26.92
2023-01-31T04:43:25.849Z,27.05
2023-01-31T04:46:28.142Z,28.67
2023-01-31T04:49:30.379Z,27.00
2023-01-31T04:52:33.045Z,27.02
2023-01-31T04:55:36.437Z,26.65
2023-01-31T04:58:38.739Z,27.98
2023-01-31T05:01:42.266Z,27.77
2023-01-31T05:04:44.719Z,27.65
2023-01-31T05:07:47.377Z,27.05
2023-01-31T05:10:49.631Z,28.30
2023-01-31T05:13:51.867Z,26.92
2023-01-31T05:16:54.059Z,25.73
2023-01-31T05:19:57.047Z,27.85
2023-01-31T05:22:59.705Z,28.48
2023-01-31T05:26:02.123Z,28.52
2023-01-31T05:29:07.363Z,27.25
2023-01-31T05:32:09.766Z,27.23
2023-01-31T05:35:13.323Z,28.80
2023-01-31T05:38:15.755Z,23.95
2023-01-31T05:41:17.876Z,26.42
2023-01-31T05:44:20.674Z,26.70
2023-01-31T05:47:24.928Z,26.90
2023-01-31T05:50:27.510Z,28.27
2023-01-31T05:53:29.576Z,28.75
2023-01-31T05:56:32.365Z,27.20
2023-01-31T05:59:34.625Z,24.25
2023-01-31T06:02:36.811Z,28.15
2023-01-31T06:05:40.536Z,28.52
2023-01-31T06:08:43.184Z,30.77
2023-01-31T06:11:45.397Z,30.83
2023-01-31T06:14:47.933Z,27.15
2023-01-31T06:17:50.175Z,30.92
2023-01-31T06:20:53.420Z,30.88
2023-01-31T06:23:55.623Z,28.08
2023-01-31T06:26:58.260Z,28.27
2023-01-31T06:30:00.813Z,29.52
2023-01-31T06:33:03.631Z,29.25
2023-01-31T06:36:06.246Z,28.88
2023-01-31T06:39:08.480Z,30.63
2023-01-31T06:42:10.643Z,30.00
2023-01-31T06:45:13.123Z,28.08
2023-01-31T06:48:16.356Z,28.75
2023-01-31T06:51:18.496Z,30.17
2023-01-31T06:54:20.753Z,29.88
2023-01-31T06:57:22.980Z,26.63
2023-01-31T07:00:25.925Z,27.77
2023-01-31T07:03:28.056Z,30.02
2023-01-31T07:06:30.461Z,26.80
2023-01-31T07:09:32.679Z,29.92
2023-01-31T07:12:35.014Z,29.50
2023-01-31T07:15:37.105Z,28.88
2023-01-31T07:18:39.209Z,31.48
2023-01-31T07:21:42.379Z,29.83
2023-01-31T07:24:44.779Z,29.33
2023-01-31T07:27:47.030Z,28.88
2023-01-31T07:30:49.404Z,29.00
2023-01-31T07:33:51.627Z,28.88
2023-01-31T07:36:54.066Z,29.50
2023-01-31T07:39:56.280Z,32.22
2023-01-31T07:43:01.509Z,28.92
2023-01-31T07:46:09.558Z,30.27
2023-01-31T07:49:12.150Z,31.10
2023-01-31T07:52:14.432Z,29.13
2023-01-31T07:55:16.837Z,31.33
2023-01-31T07:58:18.949Z,30.42
2023-01-31T08:01:42.271Z,31.05
2023-01-31T08:04:44.453Z,28.15
2023-01-31T08:08:06.527Z,31.13
2023-01-31T08:11:08.881Z,31.25
2023-01-31T08:14:11.220Z,32.00
2023-01-31T08:17:13.464Z,30.73
2023-01-31T08:20:15.738Z,29.50
2023-01-31T08:23:18.041Z,29.02
2023-01-31T08:26:22.591Z,31.00
2023-01-31T08:29:25.535Z,28.08
2023-01-31T08:32:27.780Z,29.77
2023-01-31T08:35:30.339Z,30.45
2023-01-31T08:38:32.727Z,31.55
2023-01-31T08:41:36.950Z,29.27
2023-01-31T08:44:39.169Z,30.00
2023-01-31T08:47:41.668Z,31.00
2023-01-31T08:50:44.208Z,28.08
2023-01-31T08:53:46.422Z,29.30
2023-01-31T08:56:48.538Z,31.35
2023-01-31T08:59:50.696Z,31.88
2023-01-31T09:03:00.385Z,28.73
2023-01-31T09:06:05.361Z,31.00
2023-01-31T09:09:07.558Z,31.10
2023-01-31T09:12:09.650Z,27.20
2023-01-31T09:15:12.112Z,28.42
2023-01-31T09:18:14.424Z,31.67
2023-01-31T09:21:19.442Z,30.15
2023-01-31T09:24:21.598Z,30.10
2023-01-31T09:27:23.916Z,28.10
2023-01-31T09:30:26.007Z,29.35
2023-01-31T09:33:28.750Z,30.27
2023-01-31T09:36:31.120Z,31.15
2023-01-31T09:39:33.301Z,30.65
2023-01-31T09:42:39.793Z,30.92
2023-01-31T09:45:46.160Z,30.00
2023-01-31T09:48:52.814Z,27.13
2023-01-31T09:51:59.093Z,28.38
2023-01-31T09:55:01.581Z,30.70
2023-01-31T09:58:32.578Z,29.83
2023-01-31T10:01:58.154Z,28.88
2023-01-31T10:05:20.652Z,29.23
2023-01-31T10:08:47.351Z,30.02
2023-01-31T10:12:00.531Z,28.50
2023-01-31T10:15:06.655Z,31.05
2023-01-31T10:18:27.039Z,27.58
2023-01-31T10:24:52.429Z,27.45
2023-01-31T10:27:57.560Z,27.60
2023-01-31T10:31:07.196Z,30.05
2023-01-31T10:34:29.117Z,31.30
2023-01-31T10:37:43.198Z,30.83
2023-01-31T10:40:54.205Z,30.42
2023-01-31T10:44:07.282Z,29.83
2023-01-31T10:47:18.283Z,32.20
2023-01-31T10:50:34.760Z,30.27
2023-01-31T10:53:57.802Z,30.08
2023-01-31T10:57:00.691Z,28.00
2023-01-31T11:00:04.388Z,29.85
2023-01-31T11:03:06.916Z,30.35
2023-01-31T11:06:12.342Z,30.42
2023-01-31T11:09:15.487Z,28.75
2023-01-31T11:12:18.530Z,31.30
2023-01-31T11:15:23.498Z,29.88
2023-01-31T11:18:28.176Z,30.83
2023-01-31T11:21:35.305Z,30.50
2023-01-31T11:28:22.305Z,29.13
2023-01-31T11:31:34.950Z,30.05
2023-01-31T11:34:37.767Z,28.85
2023-01-31T11:37:53.706Z,29.85
2023-01-31T11:40:56.129Z,29.15
2023-01-31T11:44:07.297Z,30.13
2023-01-31T11:47:13.411Z,31.58
2023-01-31T11:50:34.232Z,31.52
2023-01-31T11:53:36.332Z,28.27
2023-01-31T11:56:38.891Z,30.48
2023-01-31T11:59:41.248Z,31.20
2023-01-31T12:02:43.630Z,30.50
2023-01-31T12:05:51.754Z,28.63
2023-01-31T12:08:55.655Z,29.33
2023-01-31T12:12:00.699Z,28.38
2023-01-31T12:15:06.070Z,29.65
2023-01-31T12:18:11.124Z,31.23
2023-01-31T12:21:34.728Z,29.73
2023-01-31T12:24:39.993Z,30.25
2023-01-31T12:27:56.512Z,29.30
2023-01-31T12:31:23.695Z,31.98
2023-01-31T12:35:02.469Z,30.73
2023-01-31T12:38:44.160Z,30.15
2023-01-31T12:42:35.632Z,30.45
2023-01-31T12:46:13.127Z,32.72
2023-01-31T12:49:24.425Z,34.10
2023-01-31T12:52:49.749Z,30.30
2023-01-31T12:56:10.199Z,31.52
2023-01-31T12:59:37.293Z,30.48
2023-01-31T13:03:11.781Z,27.98
2023-01-31T13:06:23.544Z,29.65
2023-01-31T13:09:33.469Z,31.77
2023-01-31T13:12:37.338Z,34.13
2023-01-31T13:15:51.711Z,33.08
2023-01-31T13:18:57.207Z,32.40
2023-01-31T13:22:03.746Z,30.15
2023-01-31T13:25:28.899Z,32.92
2023-01-31T13:28:57.101Z,31.45
2023-01-31T13:32:08.920Z,30.10
2023-01-31T13:35:19.917Z,26.63
2023-01-31T13:38:23.995Z,30.40
2023-01-31T13:41:26.118Z,29.50
2023-01-31T13:44:28.319Z,30.55
2023-01-31T13:47:39.396Z,31.38
2023-01-31T13:51:00.121Z,28.85
2023-01-31T13:54:21.604Z,30.67
2023-01-31T13:57:29.195Z,31.25
2023-01-31T14:00:37.489Z,31.27
2023-01-31T14:04:14.777Z,30.02
2023-01-31T14:07:19.574Z,29.38
2023-01-31T14:10:21.772Z,32.55
2023-01-31T14:13:36.122Z,30.40
2023-01-31T14:16:38.757Z,31.33
2023-01-31T14:19:43.632Z,27.83
2023-01-31T14:23:24.358Z,29.85
2023-01-31T14:26:44.844Z,28.88
2023-01-31T14:29:51.458Z,28.75
2023-01-31T14:33:12.183Z,30.52
2023-01-31T14:36:23.666Z,31.75
2023-01-31T14:39:51.433Z,30.55
2023-01-31T14:43:20.490Z,28.80
2023-01-31T14:47:05.049Z,28.65
2023-01-31T14:50:30.553Z,27.55
2023-01-31T14:54:06.649Z,29.35
2023-01-31T14:57:25.904Z,28.48
2023-01-31T15:00:35.917Z,29.85
2023-01-31T15:03:40.258Z,32.08
2023-01-31T15:06:44.549Z,28.77
2023-01-31T15:09:49.565Z,28.83
2023-01-31T15:13:00.920Z,28.77
2023-01-31T15:16:23.354Z,29.58
2023-01-31T15:19:27.354Z,29.00
2023-01-31T15:22:31.126Z,27.13
2023-01-31T15:25:36.053Z,28.20
2023-01-31T15:28:42.474Z,28.42
2023-01-31T15:31:48.608Z,29.58
2023-01-31T15:35:01.113Z,27.60
2023-01-31T15:38:19.326Z,29.63
2023-01-31T15:41:25.278Z,27.92
2023-01-31T15:44:29.333Z,28.38
2023-01-31T15:47:32.819Z,29.52
2023-01-31T15:50:35.468Z,29.38
2023-01-31T15:53:37.677Z,27.50
2023-01-31T15:56:42.027Z,28.40
2023-01-31T15:59:48.275Z,29.35
2023-01-31T16:02:50.597Z,26.58
2023-01-31T16:05:55.564Z,27.55
2023-01-31T16:09:01.469Z,27.02
2023-01-31T16:12:04.356Z,29.83
2023-01-31T16:15:08.542Z,29.75
2023-01-31T16:18:12.652Z,27.98
2023-01-31T16:21:33.706Z,29.02
2023-01-31T16:24:35.960Z,28.73
2023-01-31T16:27:41.438Z,28.00
2023-01-31T16:30:44.341Z,31.95
2023-01-31T16:33:57.563Z,31.58
2023-01-31T16:37:05.101Z,38.13
2023-01-31T16:40:29.621Z,38.85
2023-01-31T16:43:33.843Z,37.92
2023-01-31T16:46:41.711Z,38.20
2023-01-31T16:49:43.946Z,39.65
2023-01-31T16:52:53.124Z,37.00
2023-01-31T16:56:13.775Z,37.55
2023-01-31T16:59:34.303Z,36.72
2023-01-31T17:02:41.362Z,38.63
2023-01-31T17:05:47.245Z,36.20
2023-01-31T17:08:50.116Z,35.53
2023-01-31T17:11:54.785Z,34.75
2023-01-31T17:15:00.782Z,36.28
2023-01-31T17:18:04.012Z,34.08
2023-01-31T17:21:07.066Z,35.55
2023-01-31T17:24:14.670Z,34.80
2023-01-31T17:27:18.938Z,32.85
2023-01-31T17:30:22.501Z,33.30
2023-01-31T17:33:24.762Z,34.92
2023-01-31T17:36:26.973Z,32.78
2023-01-31T17:39:29.277Z,32.15
2023-01-31T17:42:31.562Z,32.20
2023-01-31T17:45:34.124Z,30.88
2023-01-31T17:48:36.252Z,32.40
2023-01-31T17:51:38.548Z,33.75
2023-01-31T17:54:40.859Z,32.97
2023-01-31T17:57:43.218Z,32.83
2023-01-31T18:00:46.904Z,33.42
2023-01-31T18:03:49.259Z,32.17
2023-01-31T18:06:51.471Z,32.42
2023-01-31T18:09:53.721Z,32.63
2023-01-31T18:12:55.914Z,32.30
2023-01-31T18:16:13.532Z,32.70
2023-01-31T18:19:15.775Z,32.35
2023-01-31T18:22:18.058Z,30.45
2023-01-31T18:25:20.624Z,30.90
2023-01-31T18:28:23.033Z,33.92
2023-01-31T18:31:25.548Z,32.90
2023-01-31T18:34:28.304Z,31.30
2023-01-31T18:37:30.455Z,30.58
2023-01-31T18:40:33.367Z,31.95
2023-01-31T18:43:36.376Z,31.25
2023-01-31T18:46:38.923Z,31.35
2023-01-31T18:49:41.383Z,32.33
2023-01-31T18:52:44.083Z,33.60
2023-01-31T18:55:46.335Z,30.17
2023-01-31T18:58:49.986Z,31.83
2023-01-31T19:01:53.904Z,31.38
2023-01-31T19:04:56.186Z,31.63
2023-01-31T19:07:58.432Z,32.53
2023-01-31T19:11:15.115Z,32.35
2023-01-31T19:14:17.357Z,31.90
2023-01-31T19:17:20.571Z,31.60
2023-01-31T19:20:22.771Z,28.58
2023-01-31T19:23:25.862Z,31.52
2023-01-31T19:26:29.843Z,31.58
2023-01-31T19:29:32.228Z,32.30
2023-01-31T19:32:34.389Z,31.63
2023-01-31T19:35:36.551Z,32.13
2023-01-31T19:38:38.792Z,30.08
2023-01-31T19:41:42.700Z,29.23
2023-01-31T19:44:44.935Z,30.58
2023-01-31T19:47:47.126Z,30.08
2023-01-31T19:50:49.307Z,32.63
2023-01-31T19:53:55.069Z,31.17
2023-01-31T19:56:57.396Z,31.27
2023-01-31T19:59:59.672Z,28.90
2023-01-31T20:03:01.980Z,29.75
2023-01-31T20:06:07.935Z,33.05
2023-01-31T20:09:14.873Z,30.85
2023-01-31T20:12:16.986Z,32.13
2023-01-31T20:15:19.519Z,33.67
2023-01-31T20:18:21.711Z,32.53
2023-01-31T20:21:24.136Z,32.90
2023-01-31T20:24:26.369Z,31.00
2023-01-31T20:27:28.688Z,32.25
2023-01-31T20:30:31.407Z,32.15
2023-01-31T20:33:34.229Z,33.15
2023-01-31T20:36:36.459Z,32.42
2023-01-31T20:39:38.705Z,33.60
2023-01-31T20:42:40.907Z,32.17
2023-01-31T20:45:43.085Z,31.02
2023-01-31T20:48:45.561Z,32.10
2023-01-31T20:51:47.804Z,32.50
2023-01-31T20:54:50.665Z,32.10
2023-01-31T20:57:52.899Z,32.22
2023-01-31T21:00:56.127Z,33.58
2023-01-31T21:03:58.317Z,33.47
2023-01-31T21:07:00.536Z,32.30
2023-01-31T21:10:02.793Z,31.13
2023-01-31T21:13:05.299Z,34.13
2023-01-31T21:16:10.711Z,32.38
2023-01-31T21:19:12.988Z,30.38
2023-01-31T21:22:15.591Z,33.15
2023-01-31T21:25:17.919Z,31.50
2023-01-31T21:28:20.150Z,31.95
2023-01-31T21:31:22.442Z,31.17
2023-01-31T21:34:27.223Z,32.05
2023-01-31T21:37:29.398Z,31.70
2023-01-31T21:40:31.938Z,29.70
2023-01-31T21:43:35.180Z,30.92
2023-01-31T21:46:37.428Z,26.20
2023-01-31T21:49:40.057Z,28.73
2023-01-31T21:52:42.159Z,30.80
2023-01-31T21:55:44.459Z,31.10
2023-01-31T21:58:47.367Z,29.58
2023-01-31T22:01:51.700Z,30.20
2023-01-31T22:04:53.981Z,31.55
2023-01-31T22:07:56.220Z,30.35
2023-01-31T22:11:03.143Z,30.80
2023-01-31T22:14:08.851Z,28.13
2023-01-31T22:17:11.081Z,30.73
2023-01-31T22:20:15.951Z,27.83
2023-01-31T22:23:18.166Z,31.70
2023-01-31T22:26:31.112Z,28.00
2023-01-31T22:29:33.328Z,30.77
2023-01-31T22:32:35.496Z,31.60
2023-01-31T22:35:37.692Z,31.42
2023-01-31T22:38:40.494Z,29.98
2023-01-31T22:41:44.735Z,32.47
2023-01-31T22:44:46.976Z,30.13
2023-01-31T22:47:49.154Z,29.10
2023-01-31T22:50:59.866Z,31.33
2023-01-31T22:54:01.968Z,30.33
2023-01-31T22:57:04.162Z,31.30
2023-01-31T23:00:07.112Z,32.22
2023-01-31T23:03:09.334Z,31.80
2023-01-31T23:06:12.194Z,32.85
2023-01-31T23:09:14.400Z,31.25
2023-01-31T23:12:16.600Z,32.60
2023-01-31T23:15:19.604Z,32.28
2023-01-31T23:18:21.692Z,32.22
2023-01-31T23:21:23.937Z,31.55
2023-01-31T23:24:26.260Z,33.03
2023-01-31T23:27:28.686Z,34.13
2023-01-31T23:30:30.955Z,29.08
2023-01-31T23:33:33.185Z,32.80
2023-01-31T23:36:35.670Z,31.20
2023-01-31T23:39:37.947Z,34.30
2023-01-31T23:42:40.162Z,33.85
2023-01-31T23:45:43.164Z,30.77
2023-01-31T23:48:45.491Z,34.80
2023-01-31T23:51:47.803Z,34.50
2023-01-31T23:54:49.959Z,34.03
2023-01-31T23:57:52.125Z,33.92
